Time;durP1;ratioP1;P1;durP2;ratioP2;P2;SDS_P1;SDS_P2;PMS_P1;PMS_P2;Temp;Humidity;BMP_temperature;BMP_pressure;BME280_temperature;BME280_humidity;BME280_pressure;Samples;Min_cycle;Max_cycle;Signal;HPM_P1;HPM_P2
2022/03/26 00:01:31;;;;;;;;;;;13.00;81.80;;;;;;4981736;28;20125;-87
2022/03/26 00:03:57;;;;;;;;;;;13.00;81.90;;;;;;4982516;28;20114;-86
2022/03/26 00:06:22;;;;;;;;;;;12.90;82.90;;;;;;4982097;28;20261;-87
2022/03/26 00:08:49;;;;;;;;;;;12.90;82.30;;;;;;4982940;28;19914;-87
2022/03/26 00:11:15;;;;;;;;;;;12.90;83.60;;;;;;4981739;28;19906;-87
2022/03/26 00:13:41;;;;;;;;;;;12.90;82.80;;;;;;4965553;28;20139;-86
2022/03/26 00:16:06;;;;;;;;;;;12.90;82.90;;;;;;4965514;28;19928;-87
2022/03/26 00:18:32;;;;;;;;;;;12.80;82.90;;;;;;4982856;28;19969;-87
2022/03/26 00:20:57;;;;;;;;;;;12.80;82.30;;;;;;4982803;28;20112;-87
2022/03/26 00:23:23;;;;;;;;;;;12.80;81.70;;;;;;4982632;28;19907;-86
2022/03/26 00:25:49;;;;;;;;;;;12.80;82.60;;;;;;4982657;28;19985;-87
2022/03/26 00:28:14;;;;;;;;;;;12.80;82.50;;;;;;4981447;28;19917;-87
2022/03/26 00:30:40;;;;;;;;;;;12.80;81.70;;;;;;4982211;28;19941;-87
2022/03/26 00:33:05;;;;;;;;;;;12.70;81.90;;;;;;4981935;28;19913;-87
2022/03/26 00:35:31;;;;;;;;;;;12.70;81.90;;;;;;4965450;28;19961;-87
2022/03/26 00:37:56;;;;;;;;;;;12.70;82.00;;;;;;4981483;28;19906;-87
2022/03/26 00:40:22;;;;;;;;;;;12.70;81.80;;;;;;4982846;28;19906;-87
2022/03/26 00:42:47;;;;;;;;;;;12.70;82.60;;;;;;4981445;28;19906;-86
2022/03/26 00:45:13;;;;;;;;;;;12.70;81.80;;;;;;4982176;28;20296;-86
2022/03/26 00:47:39;;;;;;;;;;;12.60;82.00;;;;;;4981401;28;19913;-87
2022/03/26 00:50:05;;;;;;;;;;;12.60;82.90;;;;;;4981932;28;19906;-87
2022/03/26 00:52:30;;;;;;;;;;;12.60;82.30;;;;;;4981375;28;19969;-87
2022/03/26 00:54:56;;;;;;;;;;;12.60;82.90;;;;;;4981963;28;19914;-87
2022/03/26 00:57:21;;;;;;;;;;;12.70;82.40;;;;;;4967796;28;19914;-87
2022/03/26 00:59:47;;;;;;;;;;;12.60;82.60;;;;;;4986436;28;19912;-87
2022/03/26 01:02:12;;;;;;;;;;;12.60;81.70;;;;;;4985968;28;19922;-86
2022/03/26 01:04:38;;;;;;;;;;;12.60;83.50;;;;;;4986039;28;19941;-87
2022/03/26 01:07:04;;;;;;;;;;;12.50;83.60;;;;;;4985708;28;19917;-87
2022/03/26 01:09:30;;;;;;;;;;;12.50;84.80;;;;;;4985909;28;19914;-87
2022/03/26 01:11:55;;;;;;;;;;;12.50;83.30;;;;;;4985473;28;19910;-87
2022/03/26 01:14:21;;;;;;;;;;;12.50;83.80;;;;;;4968075;28;19957;-86
2022/03/26 01:16:47;;;;;;;;;;;12.50;83.50;;;;;;4985551;28;20174;-87
2022/03/26 01:19:16;;;;;;;;;;;12.50;83.60;;;;;;4985498;28;20185;-86
2022/03/26 01:21:41;;;;;;;;;;;12.50;83.00;;;;;;4967550;28;19973;-86
2022/03/26 01:24:07;;;;;;;;;;;12.50;84.60;;;;;;4968636;28;19913;-87
2022/03/26 01:26:33;;;;;;;;;;;12.50;83.80;;;;;;4985516;28;19981;-87
2022/03/26 01:28:58;;;;;;;;;;;12.40;83.80;;;;;;4968185;28;19910;-87
2022/03/26 01:31:24;;;;;;;;;;;12.50;84.40;;;;;;4984561;28;20202;-86
2022/03/26 01:33:50;;;;;;;;;;;12.40;82.80;;;;;;4984251;28;20198;-86
2022/03/26 01:36:15;;;;;;;;;;;12.40;84.40;;;;;;4967741;28;20182;-87
2022/03/26 01:38:41;;;;;;;;;;;12.40;83.40;;;;;;4985393;28;20082;-87
2022/03/26 01:41:07;;;;;;;;;;;12.40;84.80;;;;;;4984051;28;19916;-86
2022/03/26 01:43:33;;;;;;;;;;;12.40;84.50;;;;;;4984907;28;19906;-87
2022/03/26 01:45:58;;;;;;;;;;;12.30;83.90;;;;;;4984512;28;19986;-87
2022/03/26 01:48:24;;;;;;;;;;;12.30;83.50;;;;;;4967856;28;19907;-87
2022/03/26 01:50:50;;;;;;;;;;;12.30;84.80;;;;;;4967138;28;20050;-87
2022/03/26 01:53:15;;;;;;;;;;;12.30;84.40;;;;;;4984589;28;19906;-86
2022/03/26 01:55:41;;;;;;;;;;;12.20;83.80;;;;;;4983555;28;19918;-87
2022/03/26 01:58:06;;;;;;;;;;;12.20;85.70;;;;;;4984769;28;19944;-86
2022/03/26 02:00:32;;;;;;;;;;;12.20;84.70;;;;;;4984048;28;19912;-86
2022/03/26 02:02:58;;;;;;;;;;;12.20;84.80;;;;;;4984064;28;19918;-86
2022/03/26 02:05:23;;;;;;;;;;;12.30;85.10;;;;;;4984239;28;19910;-86
2022/03/26 02:07:49;;;;;;;;;;;12.20;85.00;;;;;;4984173;28;19912;-86
2022/03/26 02:10:16;;;;;;;;;;;12.20;85.30;;;;;;4967793;28;19906;-87
2022/03/26 02:12:42;;;;;;;;;;;12.20;85.30;;;;;;4967720;28;20126;-87
2022/03/26 02:15:08;;;;;;;;;;;12.20;84.40;;;;;;4984042;28;19952;-87
2022/03/26 02:17:34;;;;;;;;;;;12.20;85.70;;;;;;4967267;28;20098;-87
2022/03/26 02:20:01;;;;;;;;;;;12.20;83.60;;;;;;4966550;28;19953;-86
2022/03/26 02:22:27;;;;;;;;;;;12.20;85.60;;;;;;4967479;28;19907;-86
2022/03/26 02:24:53;;;;;;;;;;;12.20;85.30;;;;;;4984534;28;19941;-86
2022/03/26 02:27:21;;;;;;;;;;;12.10;85.00;;;;;;4967143;28;20186;-86
2022/03/26 02:29:47;;;;;;;;;;;12.10;84.50;;;;;;4983477;28;19977;-87
2022/03/26 02:32:12;;;;;;;;;;;12.10;85.60;;;;;;4984120;28;19913;-86
2022/03/26 02:34:38;;;;;;;;;;;12.20;84.30;;;;;;4984141;28;19992;-86
2022/03/26 02:37:04;;;;;;;;;;;12.10;85.90;;;;;;4967200;28;19906;-86
2022/03/26 02:39:29;;;;;;;;;;;12.10;85.50;;;;;;4983424;28;20079;-86
2022/03/26 02:41:55;;;;;;;;;;;12.00;85.30;;;;;;4982881;28;19973;-86
2022/03/26 02:44:21;;;;;;;;;;;12.10;86.40;;;;;;4983960;28;20018;-87
2022/03/26 02:46:46;;;;;;;;;;;12.10;84.80;;;;;;4966476;28;20306;-86
2022/03/26 02:49:12;;;;;;;;;;;12.10;85.10;;;;;;4966643;28;19906;-86
2022/03/26 02:51:39;;;;;;;;;;;12.10;85.20;;;;;;4966895;28;20129;-86
2022/03/26 02:54:04;;;;;;;;;;;12.10;84.80;;;;;;4983728;28;20100;-87
2022/03/26 02:56:30;;;;;;;;;;;12.00;86.00;;;;;;4984222;28;19906;-86
2022/03/26 02:58:56;;;;;;;;;;;12.00;85.80;;;;;;4984067;28;20174;-86
2022/03/26 03:01:23;;;;;;;;;;;12.00;86.20;;;;;;4982165;28;19910;-86
2022/03/26 03:03:51;;;;;;;;;;;12.00;87.40;;;;;;4983832;28;19913;-87
2022/03/26 03:06:17;;;;;;;;;;;12.00;87.00;;;;;;4983564;28;19906;-86
2022/03/26 03:08:43;;;;;;;;;;;11.90;86.70;;;;;;4966590;28;20089;-86
2022/03/26 03:11:09;;;;;;;;;;;12.00;86.00;;;;;;4966277;28;19913;-86
2022/03/26 03:13:35;;;;;;;;;;;12.00;86.80;;;;;;4983696;28;19902;-86
2022/03/26 03:16:00;;;;;;;;;;;12.00;87.80;;;;;;4982971;28;19914;-86
2022/03/26 03:18:26;;;;;;;;;;;11.90;86.50;;;;;;4982637;28;19913;-86
2022/03/26 03:20:51;;;;;;;;;;;11.90;87.30;;;;;;4983124;28;20010;-87
2022/03/26 03:23:17;;;;;;;;;;;11.90;87.10;;;;;;4965975;28;19969;-86
2022/03/26 03:25:43;;;;;;;;;;;11.80;87.40;;;;;;4983496;28;20198;-86
2022/03/26 03:28:08;;;;;;;;;;;11.80;87.80;;;;;;4983587;28;19913;-86
2022/03/26 03:30:34;;;;;;;;;;;11.70;87.10;;;;;;4981488;28;19952;-87
2022/03/26 03:32:59;;;;;;;;;;;11.80;87.60;;;;;;4982494;28;20194;-86
2022/03/26 03:35:25;;;;;;;;;;;11.80;86.20;;;;;;4983319;28;19934;-86
2022/03/26 03:37:51;;;;;;;;;;;11.80;87.60;;;;;;4982288;28;20113;-86
2022/03/26 03:40:17;;;;;;;;;;;11.80;87.00;;;;;;4966074;28;19913;-87
2022/03/26 03:42:43;;;;;;;;;;;11.80;87.60;;;;;;4982026;28;19913;-86
2022/03/26 03:45:09;;;;;;;;;;;11.80;87.00;;;;;;4983198;28;19906;-86
2022/03/26 03:47:35;;;;;;;;;;;11.70;86.70;;;;;;4983223;28;19916;-86
2022/03/26 03:50:00;;;;;;;;;;;11.70;87.00;;;;;;4982854;28;19933;-86
2022/03/26 03:52:26;;;;;;;;;;;11.60;86.90;;;;;;4983306;28;20002;-86
2022/03/26 03:54:52;;;;;;;;;;;11.60;87.00;;;;;;4982889;28;19940;-86
2022/03/26 03:57:17;;;;;;;;;;;11.60;87.20;;;;;;4982485;28;20159;-86
2022/03/26 03:59:43;;;;;;;;;;;11.60;87.50;;;;;;4982306;28;20167;-86
2022/03/26 04:02:11;;;;;;;;;;;11.70;89.80;;;;;;4981301;28;19918;-86
2022/03/26 04:04:41;;;;;;;;;;;11.60;87.50;;;;;;4965374;28;20208;-86
2022/03/26 04:07:07;;;;;;;;;;;11.60;87.90;;;;;;4983156;28;19906;-86
2022/03/26 04:09:33;;;;;;;;;;;11.50;89.50;;;;;;4982657;28;20194;-87
2022/03/26 04:11:59;;;;;;;;;;;11.50;87.90;;;;;;4982383;28;19906;-86
2022/03/26 04:14:25;;;;;;;;;;;11.50;88.10;;;;;;4981741;28;20093;-86
2022/03/26 04:16:50;;;;;;;;;;;11.50;87.00;;;;;;4982167;28;19910;-86
2022/03/26 04:19:18;;;;;;;;;;;11.40;87.20;;;;;;4979531;28;19973;-92
2022/03/26 04:21:45;;;;;;;;;;;11.40;87.70;;;;;;4954481;28;19910;-88
2022/03/26 04:24:10;;;;;;;;;;;11.50;88.20;;;;;;4951691;28;19911;-90
2022/03/26 04:26:36;;;;;;;;;;;11.50;88.10;;;;;;4952117;28;20280;-86
2022/03/26 04:29:02;;;;;;;;;;;11.40;88.00;;;;;;4951831;29;20459;-86
2022/03/26 04:31:28;;;;;;;;;;;11.50;87.80;;;;;;4955712;28;19911;-86
2022/03/26 04:33:53;;;;;;;;;;;11.50;87.70;;;;;;4938743;29;19915;-86
2022/03/26 04:36:20;;;;;;;;;;;11.40;87.30;;;;;;4954733;29;19958;-87
2022/03/26 04:38:46;;;;;;;;;;;11.40;88.70;;;;;;4938436;29;19918;-86
2022/03/26 04:41:12;;;;;;;;;;;11.50;88.00;;;;;;4938792;29;19906;-86
2022/03/26 04:43:37;;;;;;;;;;;11.50;89.10;;;;;;4938826;29;20492;-86
2022/03/26 04:46:03;;;;;;;;;;;11.50;89.50;;;;;;4955791;29;19914;-86
2022/03/26 04:48:29;;;;;;;;;;;11.50;87.90;;;;;;4955899;29;20051;-87
2022/03/26 04:50:54;;;;;;;;;;;11.60;87.90;;;;;;4956035;29;20361;-87
2022/03/26 04:53:20;;;;;;;;;;;11.60;89.10;;;;;;4955890;29;20007;-87
2022/03/26 04:55:45;;;;;;;;;;;11.50;88.90;;;;;;4955923;29;20290;-86
2022/03/26 04:58:11;;;;;;;;;;;11.60;89.20;;;;;;4954640;29;20283;-86
2022/03/26 05:00:36;;;;;;;;;;;11.50;90.50;;;;;;4955671;29;20000;-86
2022/03/26 05:03:02;;;;;;;;;;;11.40;89.30;;;;;;4955381;29;20414;-86
2022/03/26 05:05:27;;;;;;;;;;;11.50;89.90;;;;;;4954210;29;19934;-86
2022/03/26 05:07:55;;;;;;;;;;;11.40;89.30;;;;;;4954211;29;19965;-87
2022/03/26 05:10:29;;;;;;;;;;;11.40;88.90;;;;;;4955529;29;19915;-86
2022/03/26 05:12:55;;;;;;;;;;;11.50;88.30;;;;;;4938375;29;20490;-87
2022/03/26 05:15:21;;;;;;;;;;;11.50;88.80;;;;;;4938102;29;19918;-86
2022/03/26 05:17:47;;;;;;;;;;;11.40;88.40;;;;;;4938110;29;19961;-86
2022/03/26 05:20:13;;;;;;;;;;;11.40;89.00;;;;;;4938056;29;19954;-86
2022/03/26 05:22:40;;;;;;;;;;;11.40;89.70;;;;;;4955349;29;19910;-86
2022/03/26 05:25:06;;;;;;;;;;;11.30;89.60;;;;;;4937957;29;20001;-86
2022/03/26 05:27:32;;;;;;;;;;;11.30;88.80;;;;;;4955137;29;19914;-86
2022/03/26 05:29:57;;;;;;;;;;;11.20;89.20;;;;;;4954911;29;19918;-87
2022/03/26 05:32:23;;;;;;;;;;;11.20;90.30;;;;;;4938018;29;19945;-87
2022/03/26 05:34:50;;;;;;;;;;;11.20;90.10;;;;;;4954956;29;20367;-86
2022/03/26 05:37:16;;;;;;;;;;;11.20;90.00;;;;;;4953802;29;19973;-86
2022/03/26 05:39:42;;;;;;;;;;;11.20;89.70;;;;;;4937739;29;19922;-86
2022/03/26 05:42:07;;;;;;;;;;;11.20;89.20;;;;;;4952908;28;20323;-86
2022/03/26 05:44:33;;;;;;;;;;;11.10;90.20;;;;;;4954680;29;20359;-86
2022/03/26 05:47:00;;;;;;;;;;;11.10;90.20;;;;;;4937521;29;19962;-86
2022/03/26 05:49:26;;;;;;;;;;;11.10;90.40;;;;;;4955054;29;19917;-86
2022/03/26 05:51:51;;;;;;;;;;;11.10;90.40;;;;;;4954987;29;19910;-86
2022/03/26 05:54:17;;;;;;;;;;;11.10;90.50;;;;;;4937757;29;20319;-86
2022/03/26 05:56:51;;;;;;;;;;;11.10;90.60;;;;;;4937606;29;20316;-86
2022/03/26 05:59:20;;;;;;;;;;;11.10;90.40;;;;;;4954791;29;19910;-86
2022/03/26 06:01:47;;;;;;;;;;;10.90;90.40;;;;;;4954247;29;19938;-87
2022/03/26 06:04:12;;;;;;;;;;;10.90;91.10;;;;;;4954483;29;19947;-86
2022/03/26 06:06:38;;;;;;;;;;;10.80;91.60;;;;;;4937321;29;19911;-89
2022/03/26 06:09:03;;;;;;;;;;;10.70;91.80;;;;;;4937130;29;19910;-88
2022/03/26 06:11:29;;;;;;;;;;;10.60;92.50;;;;;;4954923;29;20279;-88
2022/03/26 06:13:54;;;;;;;;;;;10.60;91.90;;;;;;4953929;29;19970;-89
2022/03/26 06:16:21;;;;;;;;;;;10.50;92.10;;;;;;4954567;29;19917;-88
2022/03/26 06:18:47;;;;;;;;;;;10.50;92.20;;;;;;4937212;29;20001;-89
2022/03/26 06:21:12;;;;;;;;;;;10.50;91.50;;;;;;4953047;29;20010;-88
2022/03/26 06:23:38;;;;;;;;;;;10.50;91.80;;;;;;4954248;29;20414;-89
2022/03/26 06:26:03;;;;;;;;;;;10.50;91.50;;;;;;4936826;29;19910;-89
2022/03/26 06:28:29;;;;;;;;;;;10.50;92.00;;;;;;4936881;29;20391;-89
2022/03/26 06:30:55;;;;;;;;;;;10.50;91.50;;;;;;4959606;29;19954;-88
2022/03/26 06:33:22;;;;;;;;;;;10.50;91.60;;;;;;4965356;29;19907;-88
2022/03/26 06:35:48;;;;;;;;;;;10.40;92.40;;;;;;4952946;28;19933;-88
2022/03/26 06:38:13;;;;;;;;;;;10.50;92.10;;;;;;4971222;28;20338;-89
2022/03/26 06:40:39;;;;;;;;;;;10.60;92.00;;;;;;4972160;28;20353;-89
2022/03/26 06:43:05;;;;;;;;;;;10.60;92.30;;;;;;4972447;28;20278;-88
2022/03/26 06:45:31;;;;;;;;;;;10.60;92.70;;;;;;4952085;28;19911;-89
2022/03/26 06:47:57;;;;;;;;;;;10.60;92.30;;;;;;4972752;28;19918;-89
2022/03/26 06:50:22;;;;;;;;;;;10.60;92.20;;;;;;4970659;28;19976;-89
2022/03/26 06:52:48;;;;;;;;;;;10.60;91.80;;;;;;4974097;28;19917;-90
2022/03/26 06:55:13;;;;;;;;;;;10.60;92.30;;;;;;4966615;28;19919;-89
2022/03/26 06:57:41;;;;;;;;;;;10.70;92.60;;;;;;4956425;28;19906;-89
2022/03/26 07:00:09;;;;;;;;;;;10.70;92.10;;;;;;4974096;28;19906;-89
2022/03/26 07:02:35;;;;;;;;;;;10.80;93.00;;;;;;4965349;28;19922;-90
2022/03/26 07:05:02;;;;;;;;;;;10.90;92.50;;;;;;4971952;28;20000;-89
2022/03/26 07:07:27;;;;;;;;;;;11.00;92.40;;;;;;4969570;28;19916;-89
2022/03/26 07:09:53;;;;;;;;;;;11.00;91.70;;;;;;4972434;28;20004;-89
2022/03/26 07:12:18;;;;;;;;;;;11.10;92.20;;;;;;4969432;28;19956;-89
2022/03/26 07:14:44;;;;;;;;;;;11.10;91.90;;;;;;4971728;28;20466;-89
2022/03/26 07:17:09;;;;;;;;;;;11.10;91.70;;;;;;4971980;28;19953;-89
2022/03/26 07:19:35;;;;;;;;;;;11.20;91.80;;;;;;4955517;28;19918;-88
2022/03/26 07:22:01;;;;;;;;;;;11.20;91.40;;;;;;4972225;28;19940;-88
2022/03/26 07:24:26;;;;;;;;;;;11.20;91.70;;;;;;4972904;28;19990;-88
2022/03/26 07:26:52;;;;;;;;;;;11.30;91.30;;;;;;4972483;28;19917;-88
2022/03/26 07:29:17;;;;;;;;;;;11.30;91.50;;;;;;4972292;28;19938;-89
2022/03/26 07:31:43;;;;;;;;;;;11.30;91.00;;;;;;4954973;28;19914;-89
2022/03/26 07:34:11;;;;;;;;;;;11.30;91.50;;;;;;4954744;28;19924;-88
2022/03/26 07:36:36;;;;;;;;;;;11.40;91.30;;;;;;4972295;28;19917;-88
2022/03/26 07:39:02;;;;;;;;;;;11.40;91.00;;;;;;4972072;28;19910;-88
2022/03/26 07:41:28;;;;;;;;;;;11.50;91.80;;;;;;4954760;28;19910;-89
2022/03/26 07:43:53;;;;;;;;;;;11.60;91.10;;;;;;4954568;28;19910;-89
2022/03/26 07:46:19;;;;;;;;;;;11.60;90.90;;;;;;4972127;28;20405;-88
2022/03/26 07:48:45;;;;;;;;;;;11.70;91.60;;;;;;4972175;28;20345;-89
2022/03/26 07:51:10;;;;;;;;;;;11.70;92.00;;;;;;4970878;28;19973;-88
2022/03/26 07:53:36;;;;;;;;;;;11.80;91.30;;;;;;4972285;28;20359;-89
2022/03/26 07:56:02;;;;;;;;;;;11.80;91.30;;;;;;4971928;28;19921;-89
2022/03/26 07:58:28;;;;;;;;;;;11.80;91.10;;;;;;4954764;28;19917;-86
2022/03/26 08:00:53;;;;;;;;;;;11.80;91.10;;;;;;4973695;28;19929;-87
2022/03/26 08:03:19;;;;;;;;;;;11.90;91.10;;;;;;4972259;28;19929;-87
2022/03/26 08:05:44;;;;;;;;;;;12.00;91.30;;;;;;4972105;28;19910;-87
2022/03/26 08:08:10;;;;;;;;;;;12.00;91.80;;;;;;4955105;28;19910;-87
2022/03/26 08:10:36;;;;;;;;;;;12.10;91.60;;;;;;4971298;28;19917;-88
2022/03/26 08:13:02;;;;;;;;;;;12.10;90.80;;;;;;4972694;28;19914;-88
2022/03/26 08:15:27;;;;;;;;;;;12.10;90.80;;;;;;4970983;28;19925;-91
2022/03/26 08:17:53;;;;;;;;;;;12.30;91.00;;;;;;4971756;28;20374;-92
2022/03/26 08:20:18;;;;;;;;;;;12.30;90.90;;;;;;4955318;28;19929;-91
2022/03/26 08:22:44;;;;;;;;;;;12.40;91.30;;;;;;4954780;28;19917;-80
2022/03/26 08:25:10;;;;;;;;;;;12.50;91.20;;;;;;4971928;28;19989;-81
2022/03/26 08:27:36;;;;;;;;;;;12.60;90.80;;;;;;4971660;28;19937;-81
2022/03/26 08:30:03;;;;;;;;;;;12.70;90.70;;;;;;4971696;28;20046;-81
2022/03/26 08:32:28;;;;;;;;;;;12.80;90.70;;;;;;4972023;28;20368;-80
2022/03/26 08:34:54;;;;;;;;;;;12.80;90.80;;;;;;4971405;28;20057;-79
2022/03/26 08:37:20;;;;;;;;;;;12.90;90.80;;;;;;4971566;28;19965;-81
2022/03/26 08:39:45;;;;;;;;;;;13.10;90.50;;;;;;4971468;28;19910;-77
2022/03/26 08:42:11;;;;;;;;;;;13.20;91.20;;;;;;4971594;28;19910;-79
2022/03/26 08:44:36;;;;;;;;;;;13.20;90.50;;;;;;4971429;28;19957;-79
2022/03/26 08:47:04;;;;;;;;;;;13.30;91.10;;;;;;4971635;28;19916;-80
2022/03/26 08:49:30;;;;;;;;;;;13.30;90.90;;;;;;4971715;28;19910;-80
2022/03/26 08:51:56;;;;;;;;;;;13.40;90.40;;;;;;4971389;28;20013;-79
2022/03/26 08:54:21;;;;;;;;;;;13.50;90.40;;;;;;4971238;28;19977;-79
2022/03/26 08:56:49;;;;;;;;;;;13.60;90.60;;;;;;4970561;28;20455;-79
2022/03/26 08:59:15;;;;;;;;;;;13.70;90.60;;;;;;4971208;28;19918;-79
2022/03/26 09:01:40;;;;;;;;;;;13.80;90.80;;;;;;4971182;28;19922;-79
2022/03/26 09:04:06;;;;;;;;;;;13.90;90.00;;;;;;4971489;28;19914;-79
2022/03/26 09:06:32;;;;;;;;;;;14.00;90.60;;;;;;4971588;28;19965;-79
2022/03/26 09:08:58;;;;;;;;;;;14.00;89.70;;;;;;4971336;28;19922;-79
2022/03/26 09:11:24;;;;;;;;;;;14.20;90.40;;;;;;4971258;28;19966;-79
2022/03/26 09:13:49;;;;;;;;;;;14.30;89.90;;;;;;4971005;28;19910;-80
2022/03/26 09:16:15;;;;;;;;;;;14.30;87.50;;;;;;4971153;28;19914;-78
2022/03/26 09:18:40;;;;;;;;;;;14.40;87.90;;;;;;4974974;28;20327;-86
2022/03/26 09:21:06;;;;;;;;;;;14.50;88.30;;;;;;4974886;28;20059;-78
2022/03/26 09:23:32;;;;;;;;;;;14.60;89.50;;;;;;4957243;28;19914;-78
2022/03/26 09:25:59;;;;;;;;;;;14.70;87.70;;;;;;4974933;28;19937;-78
2022/03/26 09:28:25;;;;;;;;;;;14.80;86.40;;;;;;4974440;28;19996;-78
2022/03/26 09:30:50;;;;;;;;;;;14.80;86.50;;;;;;4974438;28;19949;-78
2022/03/26 09:33:16;;;;;;;;;;;14.90;87.10;;;;;;4974372;28;20367;-78
2022/03/26 09:35:42;;;;;;;;;;;14.90;87.80;;;;;;4974445;28;20355;-78
2022/03/26 09:38:07;;;;;;;;;;;15.10;85.90;;;;;;4974575;28;20284;-78
2022/03/26 09:40:34;;;;;;;;;;;15.10;86.60;;;;;;4974509;28;20010;-78
2022/03/26 09:43:01;;;;;;;;;;;15.20;86.00;;;;;;4974299;28;19910;-78
2022/03/26 09:45:26;;;;;;;;;;;15.30;86.20;;;;;;4974246;28;20311;-78
2022/03/26 09:47:52;;;;;;;;;;;15.40;86.40;;;;;;4974049;28;20004;-79
2022/03/26 09:50:19;;;;;;;;;;;15.60;85.30;;;;;;4973969;28;19917;-78
2022/03/26 09:52:45;;;;;;;;;;;15.70;85.50;;;;;;4974009;28;19997;-79
2022/03/26 09:55:13;;;;;;;;;;;15.90;84.70;;;;;;4973994;28;20453;-78
2022/03/26 09:57:39;;;;;;;;;;;16.00;83.70;;;;;;4974102;28;19911;-80
2022/03/26 10:00:06;;;;;;;;;;;16.10;84.00;;;;;;4973912;28;19914;-80
2022/03/26 10:02:31;;;;;;;;;;;16.20;84.20;;;;;;4973923;28;19922;-81
2022/03/26 10:04:57;;;;;;;;;;;16.20;83.80;;;;;;4974280;28;19910;-80
2022/03/26 10:07:31;;;;;;;;;;;16.30;84.00;;;;;;4973711;28;20413;-80
2022/03/26 10:09:57;;;;;;;;;;;16.30;84.30;;;;;;4974053;28;19910;-80
2022/03/26 10:12:27;;;;;;;;;;;16.30;85.30;;;;;;4973716;28;19917;-80
2022/03/26 10:14:59;;;;;;;;;;;16.50;86.40;;;;;;4973629;28;20301;-80
2022/03/26 10:17:29;;;;;;;;;;;16.60;84.60;;;;;;4973873;28;19921;-80
2022/03/26 10:19:56;;;;;;;;;;;16.60;84.40;;;;;;4973738;28;19933;-80
2022/03/26 10:22:22;;;;;;;;;;;16.70;84.80;;;;;;4973623;28;19962;-80
2022/03/26 10:24:48;;;;;;;;;;;16.90;84.30;;;;;;4973572;28;19910;-80
2022/03/26 10:27:13;;;;;;;;;;;17.00;83.40;;;;;;4973476;28;19910;-80
2022/03/26 10:29:51;;;;;;;;;;;17.10;84.00;;;;;;4973135;28;19952;-80
2022/03/26 10:32:39;;;;;;;;;;;17.20;82.10;;;;;;4973854;28;19957;-80
2022/03/26 10:35:12;;;;;;;;;;;17.30;82.90;;;;;;4973489;28;20098;-80
2022/03/26 10:38:13;;;;;;;;;;;17.50;84.10;;;;;;4973459;28;19910;-81
2022/03/26 10:40:38;;;;;;;;;;;17.60;82.20;;;;;;4913282;29;20304;-81
2022/03/26 10:43:07;;;;;;;;;;;17.70;81.50;;;;;;4960568;28;19910;-81
2022/03/26 10:45:34;;;;;;;;;;;17.80;83.20;;;;;;4972939;28;19910;-80
2022/03/26 10:48:01;;;;;;;;;;;17.80;81.70;;;;;;4973191;28;19929;-80
2022/03/26 10:50:27;;;;;;;;;;;17.90;81.10;;;;;;4973235;28;19949;-80
2022/03/26 10:52:54;;;;;;;;;;;18.00;81.40;;;;;;4956014;28;19910;-81
2022/03/26 10:55:21;;;;;;;;;;;18.10;80.50;;;;;;4972991;28;20450;-81
2022/03/26 10:57:47;;;;;;;;;;;18.30;80.00;;;;;;4973043;28;19921;-81
2022/03/26 11:00:14;;;;;;;;;;;18.40;80.60;;;;;;4972710;28;20432;-81
2022/03/26 11:02:41;;;;;;;;;;;18.40;79.10;;;;;;4972679;28;20371;-81
2022/03/26 11:05:07;;;;;;;;;;;18.60;79.60;;;;;;4973341;28;20505;-82
2022/03/26 11:07:35;;;;;;;;;;;18.70;79.50;;;;;;4972773;28;20387;-81
2022/03/26 11:10:03;;;;;;;;;;;18.80;79.40;;;;;;4973035;28;19917;-80
2022/03/26 11:12:29;;;;;;;;;;;18.80;78.10;;;;;;4973017;28;19960;-80
2022/03/26 11:14:55;;;;;;;;;;;18.90;79.10;;;;;;4974626;28;20351;-92
2022/03/26 11:17:30;;;;;;;;;;;19.00;78.90;;;;;;4955731;28;19965;-91
2022/03/26 11:19:55;;;;;;;;;;;19.10;78.50;;;;;;4955770;28;19910;-92
2022/03/26 11:22:34;;;;;;;;;;;19.20;78.80;;;;;;4953778;28;20330;-92
2022/03/26 11:25:18;;;;;;;;;;;19.40;79.70;;;;;;4936574;29;19910;-93
2022/03/26 11:27:44;;;;;;;;;;;19.60;77.60;;;;;;4952195;29;19910;-92
2022/03/26 11:30:09;;;;;;;;;;;19.90;76.80;;;;;;4936203;29;20271;-92
2022/03/26 11:32:37;;;;;;;;;;;19.90;77.10;;;;;;4936198;29;19910;-92
2022/03/26 11:35:04;;;;;;;;;;;20.00;77.10;;;;;;4949421;28;19918;-92
2022/03/26 11:37:30;;;;;;;;;;;20.10;77.50;;;;;;4955012;28;19933;-94
2022/03/26 11:39:58;;;;;;;;;;;20.10;78.70;;;;;;4954350;28;20351;-92
2022/03/26 11:42:37;;;;;;;;;;;20.20;78.60;;;;;;4955545;28;20008;-91
2022/03/26 11:51:10;;;;;;;;;;;20.50;75.10;;;;;;4972293;28;20401;-93
2022/03/26 11:53:37;;;;;;;;;;;20.60;76.20;;;;;;4956111;28;19917;-91
2022/03/26 11:56:03;;;;;;;;;;;20.60;73.70;;;;;;4952754;29;19930;-91
2022/03/26 11:58:29;;;;;;;;;;;20.60;74.90;;;;;;4969134;28;20382;-91
2022/03/26 12:00:59;;;;;;;;;;;20.80;75.20;;;;;;4970353;28;19957;-91
2022/03/26 12:03:25;;;;;;;;;;;21.10;73.40;;;;;;4969051;28;20021;-91
2022/03/26 12:08:49;;;;;;;;;;;21.50;70.60;;;;;;4972491;28;19917;-90
2022/03/26 12:11:15;;;;;;;;;;;21.50;71.00;;;;;;4971975;28;20338;-90
2022/03/26 12:13:40;;;;;;;;;;;21.50;70.50;;;;;;4972949;28;19910;-90
2022/03/26 12:16:07;;;;;;;;;;;21.30;70.40;;;;;;4974221;28;20009;-91
2022/03/26 12:18:36;;;;;;;;;;;21.50;70.50;;;;;;4972239;28;19965;-91
2022/03/26 12:21:06;;;;;;;;;;;21.60;69.80;;;;;;4972364;28;19914;-92
2022/03/26 12:23:34;;;;;;;;;;;21.80;68.30;;;;;;4971959;28;19945;-90
2022/03/26 12:25:59;;;;;;;;;;;22.00;66.70;;;;;;4973916;28;19917;-90
2022/03/26 12:28:25;;;;;;;;;;;22.20;66.70;;;;;;4974055;28;19910;-91
2022/03/26 12:30:57;;;;;;;;;;;22.30;67.00;;;;;;4974390;28;19980;-95
2022/03/26 12:33:23;;;;;;;;;;;22.30;66.70;;;;;;4973788;28;19921;-91
2022/03/26 12:35:51;;;;;;;;;;;22.40;67.60;;;;;;4976594;28;19969;-94
2022/03/26 12:38:18;;;;;;;;;;;22.60;67.10;;;;;;4974175;28;19978;-90
2022/03/26 12:40:57;;;;;;;;;;;22.70;66.60;;;;;;4972194;28;19910;-90
2022/03/26 12:43:23;;;;;;;;;;;22.60;65.60;;;;;;4974364;28;20052;-90
2022/03/26 12:45:49;;;;;;;;;;;22.70;64.40;;;;;;4972458;28;20299;-89
2022/03/26 12:48:16;;;;;;;;;;;22.70;64.00;;;;;;4975226;28;19910;-91
2022/03/26 12:50:43;;;;;;;;;;;23.00;63.70;;;;;;4973387;28;19914;-90
2022/03/26 12:53:09;;;;;;;;;;;23.10;63.40;;;;;;4976190;28;19992;-90
2022/03/26 12:55:35;;;;;;;;;;;23.20;63.70;;;;;;4975392;28;20323;-91
2022/03/26 13:00:45;;;;;;;;;;;23.30;61.50;;;;;;4975115;28;20057;-91
2022/03/26 13:03:10;;;;;;;;;;;23.50;61.40;;;;;;4974820;28;20163;-90
2022/03/26 13:05:37;;;;;;;;;;;23.70;61.70;;;;;;4975217;28;19914;-89
2022/03/26 13:08:03;;;;;;;;;;;23.70;60.80;;;;;;4974405;28;20367;-91
2022/03/26 13:10:33;;;;;;;;;;;23.70;59.80;;;;;;4975846;28;19910;-91
2022/03/26 13:12:59;;;;;;;;;;;23.80;61.00;;;;;;4975723;28;20069;-89
2022/03/26 13:15:25;;;;;;;;;;;23.90;61.20;;;;;;4975737;28;19972;-90
2022/03/26 13:17:50;;;;;;;;;;;24.00;60.10;;;;;;4975008;28;19910;-90
2022/03/26 13:20:23;;;;;;;;;;;24.10;61.30;;;;;;4974722;28;19914;-92
2022/03/26 13:22:52;;;;;;;;;;;24.00;59.90;;;;;;4973375;28;19910;-93
2022/03/26 13:25:18;;;;;;;;;;;23.80;60.10;;;;;;4973277;28;19945;-92
2022/03/26 13:27:43;;;;;;;;;;;23.50;60.00;;;;;;4974773;28;19910;-92
2022/03/26 13:30:10;;;;;;;;;;;23.40;60.90;;;;;;4974563;28;19957;-91
2022/03/26 13:32:35;;;;;;;;;;;23.50;60.90;;;;;;4975762;28;19979;-90
2022/03/26 13:35:01;;;;;;;;;;;23.70;61.60;;;;;;4974976;28;20387;-90
2022/03/26 13:37:29;;;;;;;;;;;24.00;60.20;;;;;;4973030;28;19933;-90
2022/03/26 13:39:54;;;;;;;;;;;24.00;60.80;;;;;;4972927;28;19910;-91
2022/03/26 13:42:21;;;;;;;;;;;24.10;60.30;;;;;;4973286;28;20481;-90
2022/03/26 13:44:47;;;;;;;;;;;24.20;59.50;;;;;;4974048;28;20445;-91
2022/03/26 13:47:17;;;;;;;;;;;24.10;59.20;;;;;;4973256;28;19937;-91
2022/03/26 13:49:42;;;;;;;;;;;24.40;59.40;;;;;;4974466;28;19937;-91
2022/03/26 13:52:27;;;;;;;;;;;24.60;58.40;;;;;;4956822;28;20375;-91
2022/03/26 13:54:53;;;;;;;;;;;24.60;58.70;;;;;;4974197;28;20457;-90
2022/03/26 13:57:29;;;;;;;;;;;24.50;58.60;;;;;;4974462;28;19937;-89
2022/03/26 13:59:54;;;;;;;;;;;24.60;58.90;;;;;;4972569;28;20019;-90
2022/03/26 14:02:24;;;;;;;;;;;24.80;58.50;;;;;;4957060;28;20405;-91
2022/03/26 14:04:50;;;;;;;;;;;24.90;59.10;;;;;;4973982;28;20005;-90
2022/03/26 14:07:15;;;;;;;;;;;25.00;57.40;;;;;;4974181;28;19996;-90
2022/03/26 14:09:51;;;;;;;;;;;25.10;56.30;;;;;;4974053;28;19936;-90
2022/03/26 14:12:16;;;;;;;;;;;25.30;55.00;;;;;;4974211;28;19917;-90
2022/03/26 14:14:42;;;;;;;;;;;25.60;55.30;;;;;;4973786;28;19918;-91
2022/03/26 14:17:07;;;;;;;;;;;25.80;55.40;;;;;;4973645;28;19914;-90
2022/03/26 14:19:33;;;;;;;;;;;25.90;55.10;;;;;;4972452;28;19911;-90
2022/03/26 14:21:58;;;;;;;;;;;25.90;56.10;;;;;;4973481;28;19957;-92
2022/03/26 14:24:24;;;;;;;;;;;25.90;55.90;;;;;;4972329;28;19910;-90